الصفحة الرئيسية
METAR-TAF:

METAR-TAF

مطار :

Coihaique, تشيلي

دائرة عرض: 45-35S, خط طول: 072-07W, ارتفاع: 310 متر

METAR: مفقودة

زمن: 09:58 (13:58 UTC)

توقعات

تاريخ ووقت الإصدار 3ساعات و 6 دقيقة قبل الساعة 10:52UTC
التوقعات صالحة من20 الساعة 12 UTC إلى 20 الساعة 24 UTC
ريح 6 عقدة من الشمال/الشمال الشرقي
الرؤية 10 كم أو أكثر
غيوم متفرقة على ارتفاع 2500 قدم

TAF: SCCY 201052Z 2012/2024 03006KT 9999 SCT025 TN01/2012Z TX07/2019Z

أرصاد الطقس والتوقعات من أكثر من 4000 مطار (تقارير الطقس للمطار METAR والتنبؤ بالطقس بالمطارTAF).

المحطات المتاحة هي النقط الصفراء والحمراء على الخريطة.

حرك المؤشر فوق النقطة لمعرفة اسم المحطة.

ثم انقر لمعرفة أرصاد وتوقعات الطقس.

لتغيير الخارطة: اضغط على الأزرار الخضراء مع رمز الصليب الأسود للتكبير. على الزر الأخضر مع شرطة للتصغير، أو على الأسهم الخضراء للخرائط المجاورة.


METAR-TAF: